Empire, Nevada
Current Conditions -  °F | °C
As of 5:53 PM on Thursday 20 Nov 2014 (Local Time) from KLOL Reporting Station
Broken Clouds Broken Clouds  
Wind Chill: 38°   Ceiling: 11000
Heat Index: 41°   Visibility: 10mi
Dew Point: 28°   Wind: 5mph
Humidity: 60%   Direction: 250°WSW
Pressure: 29.97"   Gusts: NA
Location:  40.58°N, 119.34°W
Report Text: KLOL 210153Z AUTO 25004KT 10SM BKN110 05/M02 A2997 RMK AO2 SLP166 T00501022
Loading
Personal Weather Stations






























Interactive Weather Map New forecast layout! Learn more

10-Day Weather Forecast

Advertisements
Track Severe Weather on mobile